Time;durP1;ratioP1;P1;durP2;ratioP2;P2;SDS_P1;SDS_P2;PMS_P1;PMS_P2;Temp;Humidity;BMP_temperature;BMP_pressure;BME280_temperature;BME280_humidity;BME280_pressure;Samples;Min_cycle;Max_cycle;Signal;HPM_P1;HPM_P2
2022/09/07 00:02:04;;;;;;;;;;;;;;;;;;5057588;28;19932;-77
2022/09/07 00:04:32;;;;;;;;;;;;;;;;;;5057442;28;19925;-79
2022/09/07 00:06:59;;;;;;;;;;;;;;;;;;5057955;28;19940;-79
2022/09/07 00:09:26;;;;;;;;;;;;;;;;;;5057663;28;19982;-79
2022/09/07 00:11:52;;;;;;;;;;;;;;;;;;5055120;28;20395;-79
2022/09/07 00:14:19;;;;;;;;;;;;;;;;;;5054298;28;19925;-79
2022/09/07 00:16:45;;;;;;;;;;;;;;;;;;5053926;28;19925;-79
2022/09/07 00:19:12;;;;;;;;;;;;;;;;;;5054797;28;19929;-76
2022/09/07 00:21:39;;;;;;;;;;;;;;;;;;5055530;28;19931;-79
2022/09/07 00:24:06;;;;;;;;;;;;;;;;;;5055476;28;19924;-80
2022/09/07 00:26:32;;;;;;;;;;;;;;;;;;5054721;28;19929;-79
2022/09/07 00:29:00;;;;;;;;;;;;;;;;;;5054739;28;19978;-79
2022/09/07 00:31:27;;;;;;;;;;;;;;;;;;5054524;28;19970;-79
2022/09/07 00:33:54;;;;;;;;;;;;;;;;;;5055066;28;19925;-78
2022/09/07 00:36:21;;;;;;;;;;;;;;;;;;5056859;28;19932;-81
2022/09/07 00:38:48;;;;;;;;;;;;;;;;;;5056719;28;19925;-82
2022/09/07 00:41:15;;;;;;;;;;;;;;;;;;5047773;28;20387;-81
2022/09/07 00:43:43;;;;;;;;;;;;;;;;;;5056033;28;19924;-79
2022/09/07 00:46:12;;;;;;;;;;;;;;;;;;5056307;28;19925;-81
2022/09/07 00:48:42;;;;;;;;;;;;;;;;;;5057101;28;19924;-82
2022/09/07 00:51:10;;;;;;;;;;;;;;;;;;5059826;28;19984;-79
2022/09/07 00:53:37;;;;;;;;;;;;;;;;;;5063270;28;19948;-78
2022/09/07 00:56:06;;;;;;;;;;;;;;;;;;5073218;28;19929;-79
2022/09/07 00:58:34;;;;;;;;;;;;;;;;;;5070962;28;19925;-78
2022/09/07 01:01:00;;;;;;;;;;;;;;;;;;5060402;28;19925;-78
2022/09/07 01:03:28;;;;;;;;;;;;;;;;;;5056562;28;19948;-79
2022/09/07 01:05:56;;;;;;;;;;;;;;;;;;5055180;28;20530;-80
2022/09/07 01:08:24;;;;;;;;;;;;;;;;;;5055928;28;20003;-81
2022/09/07 01:13:56;;;;;;;;;;;;;;;;;;5053722;28;19923;-81
2022/09/07 01:16:30;;;;;;;;;;;;;;;;;;5054176;28;19931;-79
2022/09/07 01:19:04;;;;;;;;;;;;;;;;;;5040046;28;19925;-79
2022/09/07 01:21:37;;;;;;;;;;;;;;;;;;5068082;28;19925;-78
2022/09/07 01:24:27;;;;;;;;;;;;;;;;;;5070176;28;19991;-78
2022/09/07 01:27:11;;;;;;;;;;;;;;;;;;5036145;28;19932;-78
2022/09/07 01:29:42;;;;;;;;;;;;;;;;;;5058320;28;19924;-80
2022/09/07 01:32:12;;;;;;;;;;;;;;;;;;5059095;28;19925;-79
2022/09/07 01:34:38;;;;;;;;;;;;;;;;;;5060505;28;19931;-81
2022/09/07 01:37:07;;;;;;;;;;;;;;;;;;5060619;28;19936;-81
2022/09/07 01:39:36;;;;;;;;;;;;;;;;;;5059063;28;20011;-81
2022/09/07 01:42:05;;;;;;;;;;;;;;;;;;5060107;28;19992;-80
2022/09/07 01:44:34;;;;;;;;;;;;;;;;;;5060185;28;20095;-81
2022/09/07 01:47:05;;;;;;;;;;;;;;;;;;5049375;28;19925;-79
2022/09/07 01:49:34;;;;;;;;;;;;;;;;;;5059825;28;20039;-80
2022/09/07 01:52:03;;;;;;;;;;;;;;;;;;5059847;28;19989;-80
2022/09/07 01:54:32;;;;;;;;;;;;;;;;;;5059804;28;19985;-79
2022/09/07 01:57:01;;;;;;;;;;;;;;;;;;5060253;28;19947;-81
2022/09/07 01:59:30;;;;;;;;;;;;;;;;;;5059141;28;19972;-81
2022/09/07 02:02:01;;;;;;;;;;;;;;;;;;5059685;28;19925;-80
2022/09/07 02:04:31;;;;;;;;;;;;;;;;;;5059712;28;19925;-80
2022/09/07 02:07:01;;;;;;;;;;;;;;;;;;5059489;28;19971;-81
2022/09/07 02:09:32;;;;;;;;;;;;;;;;;;5059582;28;19932;-80
2022/09/07 02:12:01;;;;;;;;;;;;;;;;;;5042732;28;19972;-80
2022/09/07 02:14:30;;;;;;;;;;;;;;;;;;5059583;28;19925;-80
2022/09/07 02:17:00;;;;;;;;;;;;;;;;;;5059002;28;19967;-78
2022/09/07 02:19:28;;;;;;;;;;;;;;;;;;5058012;28;19964;-81
2022/09/07 02:21:59;;;;;;;;;;;;;;;;;;5059914;28;19929;-81
2022/09/07 02:24:28;;;;;;;;;;;;;;;;;;5062535;28;19951;-78
2022/09/07 02:26:55;;;;;;;;;;;;;;;;;;5057051;28;20458;-78
2022/09/07 02:29:22;;;;;;;;;;;;;;;;;;5057188;28;19925;-78
2022/09/07 02:31:50;;;;;;;;;;;;;;;;;;5057017;28;20371;-78
2022/09/07 02:34:16;;;;;;;;;;;;;;;;;;5075378;28;19913;-79
2022/09/07 02:36:45;;;;;;;;;;;;;;;;;;5080153;28;19912;-80
2022/09/07 02:39:13;;;;;;;;;;;;;;;;;;5080114;28;19932;-80
2022/09/07 02:41:40;;;;;;;;;;;;;;;;;;5078224;28;19912;-79
2022/09/07 02:44:08;;;;;;;;;;;;;;;;;;5078645;28;19925;-79
2022/09/07 02:46:42;;;;;;;;;;;;;;;;;;5079763;28;19932;-79
2022/09/07 02:49:14;;;;;;;;;;;;;;;;;;5068039;28;19936;-76
2022/09/07 02:51:44;;;;;;;;;;;;;;;;;;5060419;28;20449;-78
2022/09/07 02:54:20;;;;;;;;;;;;;;;;;;5038559;28;19925;-78
2022/09/07 02:56:54;;;;;;;;;;;;;;;;;;5041583;28;20371;-79
2022/09/07 02:59:28;;;;;;;;;;;;;;;;;;5062446;28;19925;-80
2022/09/07 03:01:57;;;;;;;;;;;;;;;;;;5062321;28;19955;-79
2022/09/07 03:04:25;;;;;;;;;;;;;;;;;;5060720;28;19975;-80
2022/09/07 03:06:53;;;;;;;;;;;;;;;;;;5059415;28;19971;-79
2022/09/07 03:09:23;;;;;;;;;;;;;;;;;;5058112;28;19960;-77
2022/09/07 03:11:50;;;;;;;;;;;;;;;;;;5056020;28;19924;-78
2022/09/07 03:14:17;;;;;;;;;;;;;;;;;;5056162;28;19929;-78
2022/09/07 03:16:44;;;;;;;;;;;;;;;;;;5056790;28;19926;-79
2022/09/07 03:19:10;;;;;;;;;;;;;;;;;;5055795;28;19968;-79
2022/09/07 03:21:37;;;;;;;;;;;;;;;;;;5056178;28;19979;-79
2022/09/07 03:24:03;;;;;;;;;;;;;;;;;;5056261;28;19987;-79
2022/09/07 03:26:32;;;;;;;;;;;;;;;;;;5056100;28;19947;-79
2022/09/07 03:28:58;;;;;;;;;;;;;;;;;;5055889;28;20379;-79
2022/09/07 03:31:25;;;;;;;;;;;;;;;;;;5055223;28;19925;-79
2022/09/07 03:33:51;;;;;;;;;;;;;;;;;;5056325;28;19978;-78
2022/09/07 03:36:20;;;;;;;;;;;;;;;;;;5055297;28;20441;-77
2022/09/07 03:38:46;;;;;;;;;;;;;;;;;;5055392;28;19952;-78
2022/09/07 03:41:13;;;;;;;;;;;;;;;;;;5054736;28;20456;-78
2022/09/07 03:43:40;;;;;;;;;;;;;;;;;;5056497;28;20354;-79
2022/09/07 03:46:09;;;;;;;;;;;;;;;;;;5054648;28;19992;-79
2022/09/07 03:48:36;;;;;;;;;;;;;;;;;;5055619;28;19929;-79
2022/09/07 03:51:04;;;;;;;;;;;;;;;;;;5055299;28;19924;-78
2022/09/07 03:53:30;;;;;;;;;;;;;;;;;;5054956;28;19960;-78
2022/09/07 03:55:57;;;;;;;;;;;;;;;;;;5054969;28;19971;-79
2022/09/07 03:58:24;;;;;;;;;;;;;;;;;;5055333;28;19960;-79
2022/09/07 04:00:52;;;;;;;;;;;;;;;;;;5054524;28;19925;-77
2022/09/07 04:03:18;;;;;;;;;;;;;;;;;;5055224;28;19978;-78
2022/09/07 04:05:45;;;;;;;;;;;;;;;;;;5055911;28;19925;-81
2022/09/07 04:08:11;;;;;;;;;;;;;;;;;;5057526;28;19925;-79
2022/09/07 04:10:38;;;;;;;;;;;;;;;;;;5056596;28;20375;-81
2022/09/07 04:13:04;;;;;;;;;;;;;;;;;;5057093;28;19979;-81
2022/09/07 04:15:31;;;;;;;;;;;;;;;;;;5057096;28;19964;-81
2022/09/07 04:17:59;;;;;;;;;;;;;;;;;;5056559;28;20547;-81
2022/09/07 04:20:25;;;;;;;;;;;;;;;;;;5035612;28;19972;-81
2022/09/07 04:22:52;;;;;;;;;;;;;;;;;;5045861;28;20387;-80
2022/09/07 04:25:19;;;;;;;;;;;;;;;;;;5055885;28;19933;-79
2022/09/07 04:27:45;;;;;;;;;;;;;;;;;;5057166;28;19925;-80
2022/09/07 04:30:13;;;;;;;;;;;;;;;;;;5055602;28;19932;-82
2022/09/07 04:32:39;;;;;;;;;;;;;;;;;;5055458;28;20016;-81
2022/09/07 04:35:08;;;;;;;;;;;;;;;;;;5057572;28;19982;-80
2022/09/07 04:37:34;;;;;;;;;;;;;;;;;;5055982;28;19925;-80
2022/09/07 04:40:01;;;;;;;;;;;;;;;;;;5056461;28;19932;-79
2022/09/07 04:42:27;;;;;;;;;;;;;;;;;;5064850;28;19932;-79
2022/09/07 04:44:54;;;;;;;;;;;;;;;;;;5056364;28;19925;-80
2022/09/07 04:47:20;;;;;;;;;;;;;;;;;;5055720;28;20426;-80
2022/09/07 04:49:50;;;;;;;;;;;;;;;;;;5075333;22;19978;-77
2022/09/07 04:52:21;;;;;;;;;;;;;;;;;;5093254;28;20354;-78
2022/09/07 04:55:03;;;;;;;;;;;;;;;;;;5096992;28;19924;-76
2022/09/07 04:57:30;;;;;;;;;;;;;;;;;;5077412;28;19983;-78
2022/09/07 05:00:05;;;;;;;;;;;;;;;;;;5087776;28;19924;-76
2022/09/07 05:02:32;;;;;;;;;;;;;;;;;;5097626;28;20507;-77
2022/09/07 05:04:58;;;;;;;;;;;;;;;;;;5102942;28;19931;-76
2022/09/07 05:07:26;;;;;;;;;;;;;;;;;;5101930;28;19955;-76
2022/09/07 05:10:04;;;;;;;;;;;;;;;;;;5101195;28;19924;-76
2022/09/07 05:12:34;;;;;;;;;;;;;;;;;;5103194;28;19931;-76
2022/09/07 05:15:00;;;;;;;;;;;;;;;;;;5101211;28;19979;-76
2022/09/07 05:17:29;;;;;;;;;;;;;;;;;;5104764;28;19931;-77
2022/09/07 05:19:56;;;;;;;;;;;;;;;;;;5102714;28;19959;-77
2022/09/07 05:22:23;;;;;;;;;;;;;;;;;;5107604;28;19935;-76
2022/09/07 05:24:51;;;;;;;;;;;;;;;;;;5104549;28;19960;-77
2022/09/07 05:27:18;;;;;;;;;;;;;;;;;;5099361;28;20038;-77
2022/09/07 05:29:45;;;;;;;;;;;;;;;;;;5099299;28;20417;-76
2022/09/07 05:32:12;;;;;;;;;;;;;;;;;;5099593;28;19924;-77
2022/09/07 05:34:39;;;;;;;;;;;;;;;;;;5099900;28;19924;-77
2022/09/07 05:37:06;;;;;;;;;;;;;;;;;;5099743;28;19971;-76
2022/09/07 05:39:32;;;;;;;;;;;;;;;;;;5099741;28;19928;-76
2022/09/07 05:42:01;;;;;;;;;;;;;;;;;;5099335;28;20322;-78
2022/09/07 05:44:27;;;;;;;;;;;;;;;;;;5100027;28;19971;-77
2022/09/07 05:46:54;;;;;;;;;;;;;;;;;;5101694;28;19931;-76
2022/09/07 05:49:20;;;;;;;;;;;;;;;;;;5098548;28;19928;-76
2022/09/07 05:51:47;;;;;;;;;;;;;;;;;;5098943;28;19924;-77
2022/09/07 05:54:14;;;;;;;;;;;;;;;;;;5102176;28;20372;-77
2022/09/07 05:56:40;;;;;;;;;;;;;;;;;;5098728;28;20012;-77
2022/09/07 05:59:08;;;;;;;;;;;;;;;;;;5098555;28;20363;-77
2022/09/07 06:01:35;;;;;;;;;;;;;;;;;;5098875;28;20302;-76
2022/09/07 06:04:01;;;;;;;;;;;;;;;;;;5099199;28;20023;-76
2022/09/07 06:06:28;;;;;;;;;;;;;;;;;;5098833;28;19923;-77
2022/09/07 06:08:56;;;;;;;;;;;;;;;;;;5099656;28;19928;-77
2022/09/07 06:11:24;;;;;;;;;;;;;;;;;;5098947;28;19924;-76
2022/09/07 06:13:50;;;;;;;;;;;;;;;;;;5100066;28;19982;-76
2022/09/07 06:16:18;;;;;;;;;;;;;;;;;;5095348;28;19932;-77
2022/09/07 06:18:46;;;;;;;;;;;;;;;;;;5097974;28;20023;-76
2022/09/07 06:21:13;;;;;;;;;;;;;;;;;;5097100;28;19967;-77
2022/09/07 06:23:40;;;;;;;;;;;;;;;;;;5098453;28;19924;-78
2022/09/07 06:26:07;;;;;;;;;;;;;;;;;;5096528;28;20351;-76
2022/09/07 06:28:35;;;;;;;;;;;;;;;;;;5095792;28;20011;-76
2022/09/07 06:31:02;;;;;;;;;;;;;;;;;;5097822;28;19973;-77
2022/09/07 06:33:30;;;;;;;;;;;;;;;;;;5098260;28;19924;-77
2022/09/07 06:35:57;;;;;;;;;;;;;;;;;;5099140;28;19925;-77
2022/09/07 06:38:24;;;;;;;;;;;;;;;;;;5097753;28;19924;-76
2022/09/07 06:40:50;;;;;;;;;;;;;;;;;;5096169;28;19924;-77
2022/09/07 06:43:17;;;;;;;;;;;;;;;;;;5098385;28;19934;-77
2022/09/07 06:45:44;;;;;;;;;;;;;;;;;;5097496;28;20365;-76
2022/09/07 06:48:10;;;;;;;;;;;;;;;;;;5096586;28;19969;-77
2022/09/07 06:50:38;;;;;;;;;;;;;;;;;;5095582;28;19946;-74
2022/09/07 06:53:05;;;;;;;;;;;;;;;;;;5094782;28;19924;-75
2022/09/07 06:55:31;;;;;;;;;;;;;;;;;;5095509;28;19925;-76
2022/09/07 06:57:58;;;;;;;;;;;;;;;;;;5094960;28;20368;-76
2022/09/07 07:00:24;;;;;;;;;;;;;;;;;;5094898;28;19924;-77
2022/09/07 07:02:51;;;;;;;;;;;;;;;;;;5095121;28;19974;-76
2022/09/07 07:05:17;;;;;;;;;;;;;;;;;;5095291;28;19971;-76
2022/09/07 07:07:45;;;;;;;;;;;;;;;;;;5095108;28;20271;-75
2022/09/07 07:10:12;;;;;;;;;;;;;;;;;;5094475;28;19924;-75
2022/09/07 07:12:38;;;;;;;;;;;;;;;;;;5093086;28;19977;-76
2022/09/07 07:15:07;;;;;;;;;;;;;;;;;;5090646;28;19924;-75
2022/09/07 07:17:34;;;;;;;;;;;;;;;;;;5093124;28;19977;-75
2022/09/07 07:20:00;;;;;;;;;;;;;;;;;;5093470;28;19963;-73
2022/09/07 07:22:27;;;;;;;;;;;;;;;;;;5073411;28;20380;-76
2022/09/07 07:24:55;;;;;;;;;;;;;;;;;;5082035;28;19924;-77
2022/09/07 07:27:21;;;;;;;;;;;;;;;;;;5100985;28;19927;-76
2022/09/07 07:29:48;;;;;;;;;;;;;;;;;;5092067;28;19927;-75
2022/09/07 07:32:15;;;;;;;;;;;;;;;;;;5091568;28;19931;-76
2022/09/07 07:34:42;;;;;;;;;;;;;;;;;;5093481;28;19924;-76
2022/09/07 07:37:08;;;;;;;;;;;;;;;;;;5094031;28;19924;-76
2022/09/07 07:39:35;;;;;;;;;;;;;;;;;;5092842;28;19924;-75
2022/09/07 07:42:03;;;;;;;;;;;;;;;;;;5092905;28;19974;-75
2022/09/07 07:44:29;;;;;;;;;;;;;;;;;;5091676;28;19924;-75
2022/09/07 07:46:56;;;;;;;;;;;;;;;;;;5092856;28;19997;-79
2022/09/07 07:49:23;;;;;;;;;;;;;;;;;;5093555;28;19927;-77
2022/09/07 07:51:49;;;;;;;;;;;;;;;;;;5094052;28;19995;-77
2022/09/07 07:54:16;;;;;;;;;;;;;;;;;;5093381;28;19947;-80
2022/09/07 07:56:42;;;;;;;;;;;;;;;;;;5092855;28;19977;-77
2022/09/07 07:59:10;;;;;;;;;;;;;;;;;;5092259;28;19924;-78
2022/09/07 08:01:37;;;;;;;;;;;;;;;;;;5091573;28;19924;-79
2022/09/07 08:04:04;;;;;;;;;;;;;;;;;;5092640;28;19951;-78
2022/09/07 08:06:30;;;;;;;;;;;;;;;;;;5089254;28;19932;-77
2022/09/07 08:08:57;;;;;;;;;;;;;;;;;;5082576;28;19924;-78
2022/09/07 08:11:23;;;;;;;;;;;;;;;;;;5097866;28;19966;-78
2022/09/07 08:13:50;;;;;;;;;;;;;;;;;;5091863;28;19950;-78
2022/09/07 08:16:18;;;;;;;;;;;;;;;;;;5091622;28;19931;-78
2022/09/07 08:18:45;;;;;;;;;;;;;;;;;;5092733;28;19947;-78
2022/09/07 08:21:12;;;;;;;;;;;;;;;;;;5092236;28;19978;-78
2022/09/07 08:23:39;;;;;;;;;;;;;;;;;;5092693;28;19977;-78
2022/09/07 08:26:06;;;;;;;;;;;;;;;;;;5092665;28;20402;-78
2022/09/07 08:28:35;;;;;;;;;;;;;;;;;;5094193;28;19978;-78
2022/09/07 08:31:03;;;;;;;;;;;;;;;;;;5092498;28;19927;-77
2022/09/07 08:33:31;;;;;;;;;;;;;;;;;;5093164;28;20345;-78
2022/09/07 08:35:59;;;;;;;;;;;;;;;;;;5092955;28;20019;-78
2022/09/07 08:38:25;;;;;;;;;;;;;;;;;;5090975;28;20463;-78
2022/09/07 08:40:52;;;;;;;;;;;;;;;;;;5091202;28;19924;-80
2022/09/07 08:43:30;;;;;;;;;;;;;;;;;;5091273;28;19977;-78
2022/09/07 08:45:59;;;;;;;;;;;;;;;;;;5091656;28;19924;-76
2022/09/07 08:48:29;;;;;;;;;;;;;;;;;;5092154;28;19931;-78
2022/09/07 08:51:00;;;;;;;;;;;;;;;;;;5091968;28;20513;-77
2022/09/07 08:53:28;;;;;;;;;;;;;;;;;;5092362;28;20019;-78
2022/09/07 08:55:55;;;;;;;;;;;;;;;;;;5092227;28;20023;-78
2022/09/07 08:58:23;;;;;;;;;;;;;;;;;;5093851;28;19931;-76
2022/09/07 09:00:50;;;;;;;;;;;;;;;;;;5091976;28;20352;-78
2022/09/07 09:03:20;;;;;;;;;;;;;;;;;;5091561;28;20346;-77
2022/09/07 09:05:50;;;;;;;;;;;;;;;;;;5091026;28;20382;-78
2022/09/07 09:08:23;;;;;;;;;;;;;;;;;;5091744;28;19999;-79
2022/09/07 09:10:54;;;;;;;;;;;;;;;;;;5090214;28;19931;-78
2022/09/07 09:13:24;;;;;;;;;;;;;;;;;;5091478;28;19924;-79
2022/09/07 09:15:55;;;;;;;;;;;;;;;;;;5090588;28;20306;-79
2022/09/07 09:18:28;;;;;;;;;;;;;;;;;;5091066;28;19970;-79
2022/09/07 09:20:55;;;;;;;;;;;;;;;;;;5090583;28;20002;-78
2022/09/07 09:23:24;;;;;;;;;;;;;;;;;;5071506;28;19974;-79
2022/09/07 09:25:52;;;;;;;;;;;;;;;;;;5071576;28;19948;-78
2022/09/07 09:28:19;;;;;;;;;;;;;;;;;;5091508;28;20436;-78
2022/09/07 09:30:46;;;;;;;;;;;;;;;;;;5090616;28;20623;-78
2022/09/07 09:33:14;;;;;;;;;;;;;;;;;;5090970;28;20328;-78
2022/09/07 09:35:41;;;;;;;;;;;;;;;;;;5090965;28;20007;-78
2022/09/07 09:38:27;;;;;;;;;;;;;;;;;;5091031;28;20007;-78
2022/09/07 09:40:56;;;;;;;;;;;;;;;;;;5090153;28;20442;-78
2022/09/07 09:43:24;;;;;;;;;;;;;;;;;;5090230;28;19932;-79
2022/09/07 09:45:52;;;;;;;;;;;;;;;;;;5091023;28;20023;-78
2022/09/07 09:48:20;;;;;;;;;;;;;;;;;;5090613;28;20007;-79
2022/09/07 09:50:49;;;;;;;;;;;;;;;;;;5094308;28;19924;-78
2022/09/07 09:53:23;;;;;;;;;;;;;;;;;;5094961;28;19928;-78
2022/09/07 09:55:51;;;;;;;;;;;;;;;;;;5095177;28;19924;-79
2022/09/07 09:58:29;;;;;;;;;;;;;;;;;;5095150;28;19971;-78
2022/09/07 10:00:57;;;;;;;;;;;;;;;;;;5093723;28;19975;-77
2022/09/07 10:03:25;;;;;;;;;;;;;;;;;;5094428;28;19924;-77
2022/09/07 10:05:53;;;;;;;;;;;;;;;;;;5094799;28;20007;-77
2022/09/07 10:08:20;;;;;;;;;;;;;;;;;;5097532;28;19934;-82
2022/09/07 10:10:51;;;;;;;;;;;;;;;;;;5097539;28;20406;-81
2022/09/07 10:13:19;;;;;;;;;;;;;;;;;;5077467;28;20555;-84
2022/09/07 10:15:50;;;;;;;;;;;;;;;;;;5081106;28;20006;-79
2022/09/07 10:18:20;;;;;;;;;;;;;;;;;;5095603;28;20406;-81
2022/09/07 10:20:46;;;;;;;;;;;;;;;;;;5095005;28;20023;-82
2022/09/07 10:23:19;;;;;;;;;;;;;;;;;;5096065;28;19971;-79
2022/09/07 10:25:46;;;;;;;;;;;;;;;;;;5098082;28;19966;-82
2022/09/07 10:28:17;;;;;;;;;;;;;;;;;;5095261;28;19930;-80
2022/09/07 10:30:49;;;;;;;;;;;;;;;;;;5095579;28;19924;-81
2022/09/07 10:33:20;;;;;;;;;;;;;;;;;;5097857;28;19974;-79
2022/09/07 10:35:50;;;;;;;;;;;;;;;;;;5097860;28;20006;-79
2022/09/07 10:38:17;;;;;;;;;;;;;;;;;;5095530;28;19967;-81
2022/09/07 10:40:47;;;;;;;;;;;;;;;;;;5094416;28;19931;-78
2022/09/07 10:43:22;;;;;;;;;;;;;;;;;;5094564;28;20373;-77
2022/09/07 10:46:03;;;;;;;;;;;;;;;;;;5095442;28;20023;-79
2022/09/07 10:48:35;;;;;;;;;;;;;;;;;;5096526;28;20012;-78
2022/09/07 10:51:03;;;;;;;;;;;;;;;;;;5123885;22;19924;-79
2022/09/07 10:53:36;;;;;;;;;;;;;;;;;;5103926;28;19924;-80
2022/09/07 10:56:05;;;;;;;;;;;;;;;;;;5102119;28;19931;-79
2022/09/07 10:58:37;;;;;;;;;;;;;;;;;;5106500;28;19974;-86
2022/09/07 11:01:08;;;;;;;;;;;;;;;;;;5098805;28;19932;-88
2022/09/07 11:03:45;;;;;;;;;;;;;;;;;;5096646;28;19977;-84
2022/09/07 11:06:15;;;;;;;;;;;;;;;;;;5098347;28;20015;-83
2022/09/07 11:08:49;;;;;;;;;;;;;;;;;;5099059;28;20006;-83
2022/09/07 11:11:20;;;;;;;;;;;;;;;;;;5098405;28;19924;-83
2022/09/07 11:13:47;;;;;;;;;;;;;;;;;;5098347;28;19968;-82
2022/09/07 11:16:15;;;;;;;;;;;;;;;;;;5113375;28;19920;-82
2022/09/07 11:18:49;;;;;;;;;;;;;;;;;;5100152;28;19924;-82
2022/09/07 11:21:18;;;;;;;;;;;;;;;;;;5095389;28;19924;-82
2022/09/07 11:23:46;;;;;;;;;;;;;;;;;;5095984;28;20386;-82
2022/09/07 11:26:17;;;;;;;;;;;;;;;;;;5097402;28;19930;-82
2022/09/07 11:28:45;;;;;;;;;;;;;;;;;;5096638;28;19924;-82
2022/09/07 11:31:16;;;;;;;;;;;;;;;;;;5091835;28;20007;-83
2022/09/07 11:33:49;;;;;;;;;;;;;;;;;;5097484;28;19930;-82
2022/09/07 11:36:18;;;;;;;;;;;;;;;;;;5094434;28;19924;-83
2022/09/07 11:38:47;;;;;;;;;;;;;;;;;;5096329;28;19930;-83
2022/09/07 11:41:22;;;;;;;;;;;;;;;;;;5074965;28;20003;-83
2022/09/07 11:43:50;;;;;;;;;;;;;;;;;;5092842;28;20293;-88
2022/09/07 11:46:19;;;;;;;;;;;;;;;;;;5095794;28;20016;-82
2022/09/07 11:48:49;;;;;;;;;;;;;;;;;;5095457;28;19924;-82
2022/09/07 11:51:19;;;;;;;;;;;;;;;;;;5095472;28;19928;-82
2022/09/07 11:53:49;;;;;;;;;;;;;;;;;;5095719;28;19956;-83
2022/09/07 11:56:18;;;;;;;;;;;;;;;;;;5094994;28;20018;-83
2022/09/07 11:58:58;;;;;;;;;;;;;;;;;;5079795;28;19932;-82
2022/09/07 12:01:30;;;;;;;;;;;;;;;;;;5080618;28;20007;-83
2022/09/07 12:04:17;;;;;;;;;;;;;;;;;;5096594;28;19931;-83
2022/09/07 12:06:57;;;;;;;;;;;;;;;;;;5090658;28;20024;-82
2022/09/07 12:09:35;;;;;;;;;;;;;;;;;;5096297;28;19925;-83
2022/09/07 12:12:10;;;;;;;;;;;;;;;;;;5094185;28;20280;-83
2022/09/07 12:14:43;;;;;;;;;;;;;;;;;;5094644;28;20434;-83
2022/09/07 12:17:22;;;;;;;;;;;;;;;;;;5082259;28;20023;-83
2022/09/07 12:20:08;;;;;;;;;;;;;;;;;;5095096;28;19963;-83
2022/09/07 12:22:36;;;;;;;;;;;;;;;;;;5096548;28;19931;-81
2022/09/07 12:25:07;;;;;;;;;;;;;;;;;;5099912;28;19932;-82
2022/09/07 12:27:38;;;;;;;;;;;;;;;;;;5100730;28;19924;-83
2022/09/07 12:30:23;;;;;;;;;;;;;;;;;;5100950;28;20010;-81
2022/09/07 12:33:03;;;;;;;;;;;;;;;;;;5085486;28;19929;-81
2022/09/07 12:35:37;;;;;;;;;;;;;;;;;;5079620;28;19931;-82
2022/09/07 12:38:27;;;;;;;;;;;;;;;;;;5090653;28;20015;-82
2022/09/07 12:41:02;;;;;;;;;;;;;;;;;;5097942;28;20562;-82
2022/09/07 12:43:31;;;;;;;;;;;;;;;;;;5098778;28;19979;-83
2022/09/07 12:45:59;;;;;;;;;;;;;;;;;;5102968;28;20016;-82
2022/09/07 12:48:34;;;;;;;;;;;;;;;;;;5103250;28;19963;-82
2022/09/07 12:51:03;;;;;;;;;;;;;;;;;;5103315;28;20006;-81
2022/09/07 12:53:33;;;;;;;;;;;;;;;;;;5101288;28;20512;-82
2022/09/07 12:56:06;;;;;;;;;;;;;;;;;;5099345;28;19928;-82
2022/09/07 12:58:38;;;;;;;;;;;;;;;;;;5097929;28;19978;-83
2022/09/07 13:01:20;;;;;;;;;;;;;;;;;;5097854;28;19982;-83
2022/09/07 13:04:04;;;;;;;;;;;;;;;;;;5094557;28;19999;-83
2022/09/07 13:06:42;;;;;;;;;;;;;;;;;;5092898;28;19960;-83
2022/09/07 13:09:26;;;;;;;;;;;;;;;;;;5078224;28;20027;-83
2022/09/07 13:11:54;;;;;;;;;;;;;;;;;;5093433;28;19931;-84
2022/09/07 13:14:21;;;;;;;;;;;;;;;;;;5093490;28;19967;-83
2022/09/07 13:16:49;;;;;;;;;;;;;;;;;;5093818;28;20023;-83
2022/09/07 13:19:16;;;;;;;;;;;;;;;;;;5093487;28;19952;-83
2022/09/07 13:21:47;;;;;;;;;;;;;;;;;;5099967;28;19978;-83
2022/09/07 13:24:50;;;;;;;;;;;;;;;;;;5095435;28;19932;-83
2022/09/07 13:27:38;;;;;;;;;;;;;;;;;;5100960;28;19924;-84
2022/09/07 13:30:21;;;;;;;;;;;;;;;;;;5093854;28;19954;-84
2022/09/07 13:32:47;;;;;;;;;;;;;;;;;;5099612;28;19924;-83
2022/09/07 13:35:16;;;;;;;;;;;;;;;;;;5098152;28;19924;-83
2022/09/07 13:37:44;;;;;;;;;;;;;;;;;;5096640;28;20031;-84
2022/09/07 13:40:14;;;;;;;;;;;;;;;;;;5096589;28;19950;-84
2022/09/07 13:42:42;;;;;;;;;;;;;;;;;;5096543;28;19928;-83
2022/09/07 13:45:28;;;;;;;;;;;;;;;;;;5097012;28;19924;-84
2022/09/07 13:48:00;;;;;;;;;;;;;;;;;;5096764;28;20366;-84
2022/09/07 13:50:33;;;;;;;;;;;;;;;;;;5097411;28;20297;-84
2022/09/07 13:53:14;;;;;;;;;;;;;;;;;;5096003;28;20028;-83
2022/09/07 13:55:44;;;;;;;;;;;;;;;;;;5097440;28;19928;-84
2022/09/07 13:58:14;;;;;;;;;;;;;;;;;;5096379;28;20011;-85
2022/09/07 14:00:52;;;;;;;;;;;;;;;;;;5097105;28;19997;-84
2022/09/07 14:03:20;;;;;;;;;;;;;;;;;;5095862;28;19931;-84
2022/09/07 14:05:47;;;;;;;;;;;;;;;;;;5097870;28;20341;-85
2022/09/07 14:08:24;;;;;;;;;;;;;;;;;;5098557;28;19924;-84
2022/09/07 14:10:50;;;;;;;;;;;;;;;;;;5113649;28;19970;-84
2022/09/07 14:13:18;;;;;;;;;;;;;;;;;;5099941;28;20339;-84
2022/09/07 14:15:45;;;;;;;;;;;;;;;;;;5096761;28;19924;-86
2022/09/07 14:18:15;;;;;;;;;;;;;;;;;;5096893;28;20039;-84
2022/09/07 14:20:43;;;;;;;;;;;;;;;;;;5092180;28;20021;-85
2022/09/07 14:23:11;;;;;;;;;;;;;;;;;;5097024;28;19971;-85
2022/09/07 14:25:38;;;;;;;;;;;;;;;;;;5096119;28;20442;-84
2022/09/07 14:28:04;;;;;;;;;;;;;;;;;;5098126;28;19992;-85
2022/09/07 14:30:31;;;;;;;;;;;;;;;;;;5096723;28;19974;-85
2022/09/07 14:33:00;;;;;;;;;;;;;;;;;;5095808;28;19932;-85
2022/09/07 14:35:32;;;;;;;;;;;;;;;;;;5095225;28;20027;-85
2022/09/07 14:38:04;;;;;;;;;;;;;;;;;;5095002;28;19981;-85
2022/09/07 14:40:30;;;;;;;;;;;;;;;;;;5095491;28;19968;-85
2022/09/07 14:42:57;;;;;;;;;;;;;;;;;;5095313;28;19963;-84
2022/09/07 14:45:32;;;;;;;;;;;;;;;;;;5094054;28;19931;-85
2022/09/07 14:47:58;;;;;;;;;;;;;;;;;;5094758;28;20386;-85
2022/09/07 14:50:27;;;;;;;;;;;;;;;;;;5094514;28;19932;-85
2022/09/07 14:52:56;;;;;;;;;;;;;;;;;;5096597;28;19925;-85
2022/09/07 14:55:27;;;;;;;;;;;;;;;;;;5096362;28;20021;-85
2022/09/07 14:58:07;;;;;;;;;;;;;;;;;;5095762;28;19930;-85
2022/09/07 15:00:34;;;;;;;;;;;;;;;;;;5095976;28;20015;-85
2022/09/07 15:03:00;;;;;;;;;;;;;;;;;;5095418;28;19982;-85
2022/09/07 15:05:27;;;;;;;;;;;;;;;;;;5095848;28;19924;-85
2022/09/07 15:07:56;;;;;;;;;;;;;;;;;;5095226;28;20046;-85
2022/09/07 15:10:28;;;;;;;;;;;;;;;;;;5096067;28;20015;-84
2022/09/07 15:12:55;;;;;;;;;;;;;;;;;;5096100;28;19924;-85
2022/09/07 15:15:24;;;;;;;;;;;;;;;;;;5094176;28;21184;-85
2022/09/07 15:17:51;;;;;;;;;;;;;;;;;;5097194;28;19928;-84
2022/09/07 15:20:37;;;;;;;;;;;;;;;;;;5115138;28;19937;-85
2022/09/07 15:23:06;;;;;;;;;;;;;;;;;;5118686;27;19924;-84
2022/09/07 15:25:33;;;;;;;;;;;;;;;;;;5118136;27;19930;-87
2022/09/07 15:27:59;;;;;;;;;;;;;;;;;;5106186;28;19924;-83
2022/09/07 15:30:26;;;;;;;;;;;;;;;;;;5103122;28;19956;-85
2022/09/07 15:32:53;;;;;;;;;;;;;;;;;;5103929;28;19992;-84
2022/09/07 15:35:19;;;;;;;;;;;;;;;;;;5118031;28;19972;-85
2022/09/07 15:37:46;;;;;;;;;;;;;;;;;;5118155;28;19947;-85
2022/09/07 15:40:17;;;;;;;;;;;;;;;;;;5117847;28;19908;-86
2022/09/07 15:42:44;;;;;;;;;;;;;;;;;;5117655;28;19931;-86
2022/09/07 15:45:11;;;;;;;;;;;;;;;;;;5111001;28;20617;-85
2022/09/07 15:47:38;;;;;;;;;;;;;;;;;;5111475;28;19975;-86
2022/09/07 15:50:05;;;;;;;;;;;;;;;;;;5105502;28;19944;-87
2022/09/07 15:52:32;;;;;;;;;;;;;;;;;;5106439;28;19962;-86
2022/09/07 15:54:58;;;;;;;;;;;;;;;;;;5097244;28;20767;-84
2022/09/07 15:57:26;;;;;;;;;;;;;;;;;;5095555;28;19930;-85
2022/09/07 15:59:52;;;;;;;;;;;;;;;;;;5097675;28;20015;-86
2022/09/07 16:02:19;;;;;;;;;;;;;;;;;;5097223;28;19924;-84
2022/09/07 16:04:45;;;;;;;;;;;;;;;;;;5100059;28;20383;-85
2022/09/07 16:07:12;;;;;;;;;;;;;;;;;;5100247;28;19928;-84
2022/09/07 16:09:39;;;;;;;;;;;;;;;;;;5100312;28;19954;-85
2022/09/07 16:12:06;;;;;;;;;;;;;;;;;;5098531;28;20456;-85
2022/09/07 16:14:33;;;;;;;;;;;;;;;;;;5098513;28;19924;-85
2022/09/07 16:17:00;;;;;;;;;;;;;;;;;;5096806;28;19928;-85
2022/09/07 16:19:27;;;;;;;;;;;;;;;;;;5097445;28;19924;-85
2022/09/07 16:21:53;;;;;;;;;;;;;;;;;;5096686;28;19951;-85
2022/09/07 16:24:20;;;;;;;;;;;;;;;;;;5094565;28;20019;-85
2022/09/07 16:26:46;;;;;;;;;;;;;;;;;;5094714;28;20019;-83
2022/09/07 16:29:13;;;;;;;;;;;;;;;;;;5096119;28;19946;-84
2022/09/07 16:31:42;;;;;;;;;;;;;;;;;;5099197;28;20020;-85
2022/09/07 16:34:08;;;;;;;;;;;;;;;;;;5095147;28;20290;-85
2022/09/07 16:36:35;;;;;;;;;;;;;;;;;;5095245;28;20290;-85
2022/09/07 16:39:01;;;;;;;;;;;;;;;;;;5095847;28;19975;-85
2022/09/07 16:41:30;;;;;;;;;;;;;;;;;;5095530;28;20358;-84
2022/09/07 16:43:56;;;;;;;;;;;;;;;;;;5094945;28;20386;-84
2022/09/07 16:46:24;;;;;;;;;;;;;;;;;;5096821;28;19991;-85
2022/09/07 16:48:52;;;;;;;;;;;;;;;;;;5096480;28;20006;-86
2022/09/07 16:51:20;;;;;;;;;;;;;;;;;;5095529;28;19970;-85
2022/09/07 16:53:47;;;;;;;;;;;;;;;;;;5095730;28;19931;-84
2022/09/07 16:56:17;;;;;;;;;;;;;;;;;;5094415;28;19955;-85
2022/09/07 16:58:44;;;;;;;;;;;;;;;;;;5093016;28;19953;-85
2022/09/07 17:01:11;;;;;;;;;;;;;;;;;;5092511;28;19928;-84
2022/09/07 17:03:38;;;;;;;;;;;;;;;;;;5093374;28;19924;-85